map of CFE home
CFE - Airport
Location
City:  Clermont/Ferrand Auvergne, Auvergne, France
Name:Clermont/Ferrand Auvergne International Airport
Old (Alt.):Aulnat
ICAO:LFLC
IATA:CFE

Details
Type:Airport (Aerodrome, Airfield)
Use:Public/Civil, International (customs port of entry)
Latitude:4547'09"N (45.785833)
Longitude:309'45"E (3.162500)
Elevation:1090 ft (332 m)
Variation:1.30E (WMM2015v2 magnetic declination)
0.16 annual change
Runways:3
Longest:9892 × 148 ft (3015 × 45 m), paved

Time
Time Zone:UTC+1 (DST+2)
Local Time:

Weather
METAR:LFLC 041400Z AUTO 17008KT CAVOK 04/M03 Q1026 NOSIG
TAF:LFLC 041400Z 0415/0515 15008KT CAVOK
BECMG 0418/0420 SCT030 OVC050 PROB30
TEMPO 0421/0503 -SN OVC030
BECMG 0512/0514 SCT050

Related Locations
Nearby:
Farthest:CHT: 12292 mi / 19783 km
Waitangi [Tuuta], CIT, NZ

Find:

   beyond  
but within

Other Information
Maps:
NOTAMs:
Links:
Sources:

  
  • flag of France
  • flag of Auvergne
  

Sectional Chart

Flight Planning
at skyvector.com

Satellite Image

Google Maps Satellite view

 

Copyright © 2004-2019 Karl L. Swartz. All rights reserved.
The Great Circle Mapper name and logo are trademarks of the Great Circle Mapper.
All other trademarks mentioned herein belong to their respective owners.
Please see credits for attibutions and further copyright information.

  Follow gcmap on Facebook Follow gcmap on Twitter GCmap on LinkedIn

hCard Microformat

Geo Microformat